Time;durP1;ratioP1;P1;durP2;ratioP2;P2;SDS_P1;SDS_P2;PMS_P1;PMS_P2;Temp;Humidity;BMP_temperature;BMP_pressure;BME280_temperature;BME280_humidity;BME280_pressure;Samples;Min_cycle;Max_cycle;Signal;HPM_P1;HPM_P2
2022/03/21 00:01:19;;;;;;;22.03;16.37;;;9.70;99.90;;;;;;5013565;28;20203;-79
2022/03/21 00:03:46;;;;;;;25.83;16.83;;;9.80;99.90;;;;;;5003824;28;20722;-80
2022/03/21 00:06:15;;;;;;;20.03;16.30;;;9.70;99.90;;;;;;5005930;28;20196;-79
2022/03/21 00:08:44;;;;;;;23.40;16.77;;;9.60;99.90;;;;;;5005906;28;20208;-78
2022/03/21 00:11:12;;;;;;;25.07;17.90;;;9.60;99.90;;;;;;5028403;28;20207;-78
2022/03/21 00:13:42;;;;;;;23.77;17.80;;;9.70;99.90;;;;;;5006856;28;20224;-79
2022/03/21 00:16:25;;;;;;;22.37;17.30;;;9.60;99.90;;;;;;5003655;28;20200;-79
2022/03/21 00:18:52;;;;;;;21.47;16.33;;;9.70;99.90;;;;;;5010309;28;20543;-79
2022/03/21 00:21:21;;;;;;;22.27;17.57;;;9.70;99.90;;;;;;5010219;28;20211;-79
2022/03/21 00:23:49;;;;;;;24.60;17.87;;;9.80;99.90;;;;;;5007779;28;20224;-79
2022/03/21 00:26:17;;;;;;;21.67;17.13;;;9.80;99.90;;;;;;5021278;28;20200;-79
2022/03/21 00:28:44;;;;;;;23.57;17.00;;;9.70;99.90;;;;;;5008209;28;20208;-79
2022/03/21 00:31:12;;;;;;;26.07;17.13;;;9.70;99.90;;;;;;5010895;28;20203;-79
2022/03/21 00:33:39;;;;;;;21.27;16.53;;;9.60;99.90;;;;;;5008726;28;20226;-79
2022/03/21 00:36:08;;;;;;;20.00;17.20;;;9.70;99.90;;;;;;5021076;28;20200;-80
2022/03/21 00:38:38;;;;;;;22.03;17.77;;;9.70;99.90;;;;;;5011411;28;20208;-79
2022/03/21 00:41:06;;;;;;;21.20;16.77;;;9.80;99.90;;;;;;5011553;28;20227;-79
2022/03/21 00:43:35;;;;;;;24.60;17.80;;;9.70;99.90;;;;;;5011746;28;20216;-78
2022/03/21 00:46:03;;;;;;;21.20;16.67;;;9.70;99.90;;;;;;5010869;28;20196;-79
2022/03/21 00:48:32;;;;;;;23.93;16.90;;;9.70;99.90;;;;;;5006375;28;20196;-82
2022/03/21 00:51:03;;;;;;;22.80;16.93;;;9.70;99.90;;;;;;5012627;28;20204;-80
2022/03/21 00:53:32;;;;;;;21.43;17.13;;;9.60;99.90;;;;;;5009275;28;20216;-79
2022/03/21 00:56:02;;;;;;;23.90;17.13;;;9.50;99.90;;;;;;5015964;28;20199;-79
2022/03/21 00:58:29;;;;;;;25.43;17.50;;;9.50;99.90;;;;;;5012669;28;20203;-85
2022/03/21 01:00:57;;;;;;;22.90;17.93;;;9.60;99.90;;;;;;5011393;28;20207;-79
2022/03/21 01:03:24;;;;;;;19.63;17.03;;;9.70;99.90;;;;;;5007370;28;20223;-79
2022/03/21 01:05:51;;;;;;;24.80;17.97;;;9.80;99.90;;;;;;5029109;28;20573;-79
2022/03/21 01:08:19;;;;;;;23.27;17.57;;;9.70;99.90;;;;;;5036862;28;20195;-79
2022/03/21 01:10:47;;;;;;;23.10;16.67;;;9.70;99.90;;;;;;5016614;28;20211;-80
2022/03/21 01:13:18;;;;;;;21.93;17.47;;;9.70;99.90;;;;;;5016815;28;20223;-79
2022/03/21 01:15:46;;;;;;;22.60;17.80;;;9.70;99.90;;;;;;5021659;28;20200;-79
2022/03/21 01:18:22;;;;;;;23.70;18.10;;;9.60;99.90;;;;;;5011468;28;20200;-79
2022/03/21 01:20:50;;;;;;;23.70;16.30;;;9.60;99.90;;;;;;5029050;28;20203;-82
2022/03/21 01:23:19;;;;;;;21.87;16.37;;;9.60;99.90;;;;;;5013101;28;20216;-80
2022/03/21 01:25:46;;;;;;;22.90;17.13;;;9.50;99.90;;;;;;5015384;28;20196;-79
2022/03/21 01:28:15;;;;;;;23.50;17.67;;;9.50;99.90;;;;;;5011035;28;20203;-81
2022/03/21 01:30:43;;;;;;;24.43;17.10;;;9.50;99.90;;;;;;5009256;28;20207;-79
2022/03/21 01:33:10;;;;;;;21.13;16.43;;;9.50;99.90;;;;;;5026516;28;20228;-79
2022/03/21 01:35:39;;;;;;;22.67;17.50;;;9.50;99.90;;;;;;5012838;28;20199;-79
2022/03/21 01:38:06;;;;;;;21.83;17.13;;;9.50;99.90;;;;;;5011343;28;20214;-79
2022/03/21 01:40:34;;;;;;;18.67;15.27;;;9.40;99.90;;;;;;5009260;28;20204;-79
2022/03/21 01:43:17;;;;;;;24.27;17.87;;;9.50;99.90;;;;;;5010176;28;20250;-79
2022/03/21 01:45:44;;;;;;;24.50;18.30;;;9.50;99.90;;;;;;5009921;28;20206;-79
2022/03/21 01:48:12;;;;;;;20.87;16.97;;;9.50;99.90;;;;;;5027080;28;20677;-80
2022/03/21 01:50:40;;;;;;;25.93;17.50;;;9.40;99.90;;;;;;5012520;28;20200;-79
2022/03/21 01:55:53;;;;;;;24.27;17.00;;;9.40;99.90;;;;;;5010804;28;20195;-79
2022/03/21 01:58:24;;;;;;;22.50;17.20;;;9.40;99.90;;;;;;5024447;28;20203;-79
2022/03/21 02:00:52;;;;;;;24.07;17.97;;;9.40;99.90;;;;;;5025649;28;20210;-79
2022/03/21 02:03:21;;;;;;;23.70;18.13;;;9.40;99.90;;;;;;5007907;28;20223;-79
2022/03/21 02:05:48;;;;;;;22.10;16.77;;;9.40;99.90;;;;;;5007403;28;20207;-79
2022/03/21 02:08:17;;;;;;;21.53;16.80;;;9.50;99.90;;;;;;5009184;28;20214;-79
2022/03/21 02:10:51;;;;;;;24.33;18.23;;;9.40;99.90;;;;;;5032066;28;20207;-79
2022/03/21 02:13:22;;;;;;;24.33;16.97;;;9.40;99.90;;;;;;5005841;28;20581;-79
2022/03/21 02:15:51;;;;;;;23.70;17.47;;;9.40;99.90;;;;;;5010568;28;20207;-79
2022/03/21 02:18:20;;;;;;;23.73;17.83;;;9.50;99.90;;;;;;5025969;28;20192;-79
2022/03/21 02:20:48;;;;;;;23.70;17.73;;;9.40;99.90;;;;;;5007074;28;20207;-79
2022/03/21 02:23:21;;;;;;;22.70;16.60;;;9.20;99.90;;;;;;5004057;28;20219;-79
2022/03/21 02:25:51;;;;;;;24.30;18.20;;;9.20;99.90;;;;;;5005642;28;20202;-82
2022/03/21 02:28:20;;;;;;;20.40;16.67;;;9.30;99.90;;;;;;5000751;28;20199;-79
2022/03/21 02:30:49;;;;;;;21.07;16.37;;;9.30;99.90;;;;;;5005485;28;20208;-80
2022/03/21 02:33:18;;;;;;;22.47;17.17;;;9.30;99.90;;;;;;5009044;28;20230;-79
2022/03/21 02:35:48;;;;;;;21.83;16.90;;;9.40;99.90;;;;;;5007644;28;20582;-79
2022/03/21 02:38:17;;;;;;;20.97;17.47;;;9.40;99.90;;;;;;5006464;28;20204;-81
2022/03/21 02:40:45;;;;;;;20.63;17.07;;;9.30;99.90;;;;;;5006196;28;20203;-79
2022/03/21 02:43:14;;;;;;;24.83;17.77;;;9.30;99.90;;;;;;5007072;28;20227;-79
2022/03/21 02:45:42;;;;;;;24.37;17.10;;;9.40;99.90;;;;;;5005031;28;20200;-79
2022/03/21 02:48:11;;;;;;;24.27;18.03;;;9.30;99.90;;;;;;5020633;28;20204;-80
2022/03/21 02:50:43;;;;;;;24.77;18.17;;;9.20;99.90;;;;;;5005882;28;20203;-78
2022/03/21 02:53:12;;;;;;;25.73;17.27;;;9.20;99.90;;;;;;5009045;28;20211;-79
2022/03/21 02:55:42;;;;;;;24.77;18.27;;;9.20;99.90;;;;;;5003529;28;20211;-79
2022/03/21 02:58:10;;;;;;;21.07;17.00;;;9.20;99.90;;;;;;5004455;28;20206;-79
2022/03/21 03:00:39;;;;;;;24.13;17.97;;;9.20;99.90;;;;;;5022446;28;20204;-79
2022/03/21 03:03:06;;;;;;;23.63;18.60;;;9.20;99.90;;;;;;5016449;28;20224;-81
2022/03/21 03:05:33;;;;;;;24.63;19.67;;;9.30;99.90;;;;;;5024238;28;20207;-79
2022/03/21 03:08:02;;;;;;;22.43;17.77;;;9.30;99.90;;;;;;5014070;28;20203;-78
2022/03/21 03:10:29;;;;;;;28.73;20.97;;;9.30;99.90;;;;;;5003901;28;20204;-81
2022/03/21 03:12:57;;;;;;;27.97;21.47;;;9.40;99.90;;;;;;5008181;28;20596;-79
2022/03/21 03:15:25;;;;;;;30.47;22.73;;;9.40;99.90;;;;;;5006904;28;20211;-81
2022/03/21 03:17:53;;;;;;;29.87;22.23;;;9.40;99.90;;;;;;5019485;28;20223;-82
2022/03/21 03:20:21;;;;;;;28.07;22.40;;;9.50;99.90;;;;;;4997464;28;20204;-79
2022/03/21 03:22:49;;;;;;;35.70;24.73;;;9.60;99.90;;;;;;5006931;28;20204;-79
2022/03/21 03:25:17;;;;;;;33.27;23.57;;;9.50;99.90;;;;;;5014732;28;20200;-83
2022/03/21 03:27:44;;;;;;;29.37;24.03;;;9.60;99.90;;;;;;5011453;28;20223;-79
2022/03/21 03:30:12;;;;;;;33.70;24.53;;;9.60;99.90;;;;;;5012571;28;20219;-79
2022/03/21 03:32:40;;;;;;;30.17;24.23;;;9.60;99.90;;;;;;5006126;28;20202;-79
2022/03/21 03:35:10;;;;;;;32.93;24.97;;;9.50;99.90;;;;;;5007428;28;20231;-81
2022/03/21 03:37:37;;;;;;;31.83;25.33;;;9.60;99.90;;;;;;5008982;28;20554;-79
2022/03/21 03:40:06;;;;;;;30.03;23.93;;;9.50;99.90;;;;;;5004494;28;20207;-82
2022/03/21 03:42:34;;;;;;;33.13;24.50;;;9.50;99.90;;;;;;5012441;28;20196;-79
2022/03/21 03:45:01;;;;;;;31.43;24.17;;;9.40;99.90;;;;;;5020475;28;20203;-79
2022/03/21 03:47:29;;;;;;;32.97;25.27;;;9.30;99.90;;;;;;5009580;28;20211;-79
2022/03/21 03:49:58;;;;;;;30.90;24.47;;;9.30;99.90;;;;;;5012876;28;20199;-79
2022/03/21 03:52:27;;;;;;;30.93;24.77;;;9.30;99.90;;;;;;5014380;28;20215;-80
2022/03/21 03:54:54;;;;;;;35.23;26.47;;;9.30;99.90;;;;;;5006033;28;20238;-79
2022/03/21 03:57:22;;;;;;;34.00;26.57;;;9.30;99.90;;;;;;5009970;28;20195;-79
2022/03/21 03:59:49;;;;;;;36.57;25.67;;;9.30;99.90;;;;;;5009405;28;20210;-80
2022/03/21 04:02:17;;;;;;;32.73;27.17;;;9.30;99.90;;;;;;5008702;28;20204;-79
2022/03/21 04:04:44;;;;;;;31.40;25.37;;;9.20;99.90;;;;;;5001885;28;20242;-79
2022/03/21 04:07:12;;;;;;;36.20;27.43;;;9.20;99.90;;;;;;5004681;28;20650;-79
2022/03/21 04:09:40;;;;;;;34.30;27.33;;;9.10;99.90;;;;;;5007271;28;20196;-79
2022/03/21 04:12:09;;;;;;;38.73;28.13;;;9.10;99.90;;;;;;5023222;28;20204;-79
2022/03/21 04:14:36;;;;;;;38.07;27.93;;;9.10;99.90;;;;;;5005941;28;20223;-79
2022/03/21 04:17:04;;;;;;;35.70;26.67;;;9.20;99.90;;;;;;5009543;28;20195;-81
2022/03/21 04:19:32;;;;;;;38.57;27.87;;;9.30;99.90;;;;;;5008691;28;20215;-79
2022/03/21 04:21:59;;;;;;;38.70;28.30;;;9.40;99.90;;;;;;5006211;28;20200;-79
2022/03/21 04:24:26;;;;;;;37.47;28.47;;;9.40;99.90;;;;;;5006433;28;20223;-79
2022/03/21 04:26:55;;;;;;;35.20;27.87;;;9.40;99.90;;;;;;5007761;28;20674;-81
2022/03/21 04:29:23;;;;;;;38.57;27.70;;;9.40;99.90;;;;;;5003882;28;20204;-79
2022/03/21 04:31:50;;;;;;;39.07;27.83;;;9.60;99.90;;;;;;5007636;28;20200;-79
2022/03/21 04:34:18;;;;;;;34.73;28.87;;;9.60;99.90;;;;;;5007548;28;20234;-79
2022/03/21 04:36:46;;;;;;;35.93;28.53;;;9.60;99.90;;;;;;5025826;28;20199;-79
2022/03/21 04:39:13;;;;;;;35.53;28.60;;;9.30;99.90;;;;;;5007933;28;20196;-79
2022/03/21 04:41:41;;;;;;;36.13;27.17;;;9.10;99.90;;;;;;5008030;28;20204;-80
2022/03/21 04:44:10;;;;;;;36.00;27.07;;;8.90;99.90;;;;;;5008381;28;20208;-79
2022/03/21 04:46:38;;;;;;;34.13;27.17;;;8.70;99.90;;;;;;5008712;28;20191;-79
2022/03/21 04:49:05;;;;;;;33.37;26.83;;;8.70;99.90;;;;;;5025424;28;20199;-84
2022/03/21 04:51:32;;;;;;;31.77;26.43;;;8.60;99.90;;;;;;5006389;28;20211;-79
2022/03/21 04:54:00;;;;;;;34.03;25.80;;;8.40;99.90;;;;;;5006499;28;20212;-79
2022/03/21 04:56:27;;;;;;;36.63;28.60;;;8.40;99.90;;;;;;5009942;28;20657;-79
2022/03/21 04:58:55;;;;;;;33.27;26.67;;;8.30;99.90;;;;;;5005641;28;20215;-79
2022/03/21 05:01:24;;;;;;;36.37;27.97;;;8.30;99.90;;;;;;5016537;28;20192;-79
2022/03/21 05:03:51;;;;;;;37.30;27.50;;;8.40;99.90;;;;;;5009479;28;20227;-84
2022/03/21 05:06:19;;;;;;;34.33;27.77;;;8.20;99.90;;;;;;5011165;28;20202;-79
2022/03/21 05:08:47;;;;;;;34.80;27.60;;;8.20;99.90;;;;;;5010362;28;20235;-79
2022/03/21 05:11:14;;;;;;;32.30;26.37;;;8.10;99.90;;;;;;5013581;28;20199;-79
2022/03/21 05:13:41;;;;;;;36.73;26.60;;;8.10;99.90;;;;;;5014760;28;20234;-80
2022/03/21 05:16:09;;;;;;;32.77;25.80;;;8.10;99.90;;;;;;5017402;28;20230;-78
2022/03/21 05:18:38;;;;;;;35.43;27.83;;;8.00;99.90;;;;;;5014862;28;20207;-79
2022/03/21 05:21:06;;;;;;;34.00;26.67;;;7.90;99.90;;;;;;5007148;28;20196;-80
2022/03/21 05:31:48;;;;;;;33.43;26.30;;;8.00;99.90;;;;;;5016289;28;20211;-75
2022/03/21 05:37:02;;;;;;;32.43;26.43;;;7.90;99.90;;;;;;5006533;28;20199;-75
2022/03/21 05:39:29;;;;;;;38.97;29.13;;;7.80;99.90;;;;;;5001652;28;20203;-75
2022/03/21 05:41:57;;;;;;;35.27;28.30;;;7.80;99.90;;;;;;5004956;28;20558;-75
2022/03/21 05:44:24;;;;;;;37.93;27.43;;;7.80;99.90;;;;;;5006782;28;20243;-75
2022/03/21 05:46:52;;;;;;;36.53;27.80;;;7.70;99.90;;;;;;5021637;28;20283;-74
2022/03/21 05:49:20;;;;;;;35.90;28.17;;;7.80;99.90;;;;;;5007472;28;20199;-76
2022/03/21 05:51:47;;;;;;;36.63;27.57;;;8.00;99.90;;;;;;5010858;28;20555;-76
2022/03/21 05:54:15;;;;;;;37.83;29.17;;;8.00;99.90;;;;;;5010296;28;20956;-76
2022/03/21 05:56:43;;;;;;;35.37;27.83;;;8.00;99.90;;;;;;5019404;28;20232;-74
2022/03/21 06:01:56;;;;;;;35.27;27.60;;;7.90;99.90;;;;;;5007065;28;20195;-74
2022/03/21 06:04:25;;;;;;;33.77;26.57;;;7.60;99.90;;;;;;5004673;28;20231;-75
2022/03/21 06:07:06;;;;;;;33.57;26.33;;;7.50;99.90;;;;;;5027743;28;20214;-74
2022/03/21 06:09:33;;;;;;;34.23;27.07;;;7.50;99.90;;;;;;5009064;28;20210;-74
2022/03/21 06:12:09;;;;;;;34.40;26.40;;;7.40;99.90;;;;;;5003278;28;20216;-75
2022/03/21 06:14:36;;;;;;;36.17;27.03;;;7.40;99.90;;;;;;5013956;28;20246;-75
2022/03/21 06:17:39;;;;;;;35.90;27.53;;;7.50;99.90;;;;;;5005670;28;20206;-74
2022/03/21 06:20:10;;;;;;;35.23;27.63;;;7.40;99.90;;;;;;5006865;28;20203;-75
2022/03/21 06:22:40;;;;;;;35.93;26.83;;;7.40;99.90;;;;;;5002001;28;20210;-74
2022/03/21 06:25:08;;;;;;;32.97;25.87;;;7.40;99.90;;;;;;5003899;28;20211;-75
2022/03/21 06:27:40;;;;;;;37.13;27.97;;;7.40;99.90;;;;;;5007948;28;20206;-75
2022/03/21 06:30:15;;;;;;;33.43;26.77;;;7.40;99.90;;;;;;5006233;28;20195;-74
2022/03/21 06:32:43;;;;;;;35.93;26.67;;;7.40;99.90;;;;;;5025973;28;20211;-74
2022/03/21 06:39:01;;;;;;;38.97;27.73;;;7.60;99.90;;;;;;5013656;28;20182;-74
2022/03/21 06:41:28;;;;;;;36.50;27.47;;;7.60;99.90;;;;;;5008226;28;20196;-75
2022/03/21 06:43:56;;;;;;;40.30;30.80;;;7.70;99.90;;;;;;4998598;28;20634;-74
2022/03/21 06:46:23;;;;;;;38.00;29.63;;;7.90;99.90;;;;;;5016665;28;20207;-74
2022/03/21 06:48:51;;;;;;;35.93;29.60;;;7.80;99.90;;;;;;5007300;28;20207;-76
2022/03/21 06:51:18;;;;;;;40.43;29.93;;;7.90;99.90;;;;;;5003750;28;20721;-74
2022/03/21 06:53:45;;;;;;;38.53;30.67;;;8.20;99.90;;;;;;5005104;28;20219;-76
2022/03/21 06:56:14;;;;;;;39.20;31.40;;;8.50;99.90;;;;;;5004065;28;20220;-75
2022/03/21 06:58:41;;;;;;;41.77;32.40;;;8.80;99.90;;;;;;5003227;28;20199;-74
2022/03/21 07:01:09;;;;;;;38.40;31.60;;;8.80;99.90;;;;;;5006212;28;20207;-75
2022/03/21 07:03:41;;;;;;;38.80;31.63;;;8.70;99.90;;;;;;5006717;28;20222;-74
2022/03/21 07:06:09;;;;;;;43.03;31.53;;;8.60;99.90;;;;;;5001189;28;20206;-74
2022/03/21 07:08:36;;;;;;;40.57;31.83;;;8.60;99.90;;;;;;5002877;28;20208;-74
2022/03/21 07:11:04;;;;;;;41.77;31.47;;;8.70;99.90;;;;;;5004530;28;20226;-74
2022/03/21 07:13:33;;;;;;;40.20;31.60;;;8.70;99.90;;;;;;5007391;28;20238;-74
2022/03/21 07:16:00;;;;;;;39.63;30.23;;;8.80;99.90;;;;;;5006711;28;20230;-74
2022/03/21 07:18:27;;;;;;;49.70;33.03;;;8.80;99.90;;;;;;5007696;28;20200;-74
2022/03/21 07:20:55;;;;;;;38.13;31.50;;;8.90;99.90;;;;;;5007605;28;20210;-75
2022/03/21 07:23:22;;;;;;;39.50;31.43;;;8.90;99.90;;;;;;5006547;28;20219;-76
2022/03/21 07:25:50;;;;;;;41.60;31.83;;;9.10;99.90;;;;;;5001678;28;20206;-75
2022/03/21 07:28:17;;;;;;;43.10;32.80;;;9.20;99.90;;;;;;5010149;28;20195;-78
2022/03/21 07:30:48;;;;;;;38.37;30.93;;;9.40;99.90;;;;;;5002797;28;20263;-75
2022/03/21 07:33:16;;;;;;;37.03;29.60;;;9.60;99.90;;;;;;5007272;28;20215;-75
2022/03/21 07:35:43;;;;;;;41.80;31.77;;;9.70;99.90;;;;;;5007109;28;20224;-75
2022/03/21 07:38:10;;;;;;;36.07;30.03;;;9.80;99.90;;;;;;5020822;28;20215;-75
2022/03/21 07:40:38;;;;;;;36.97;29.90;;;9.90;99.90;;;;;;5011436;28;20669;-76
2022/03/21 07:43:05;;;;;;;36.20;30.07;;;10.00;99.90;;;;;;5006732;28;20231;-76
2022/03/21 07:48:19;;;;;;;35.27;27.97;;;10.10;99.90;;;;;;5014296;28;20196;-74
2022/03/21 07:50:46;;;;;;;34.27;27.77;;;10.30;99.90;;;;;;5007848;28;20200;-75
2022/03/21 07:53:13;;;;;;;32.60;27.10;;;10.30;99.90;;;;;;5008479;28;20688;-75
2022/03/21 07:55:41;;;;;;;31.63;26.37;;;10.40;99.90;;;;;;5011229;28;20227;-74
2022/03/21 07:58:08;;;;;;;29.43;25.57;;;10.50;99.90;;;;;;5012379;28;20199;-75
2022/03/21 08:00:36;;;;;;;34.90;24.63;;;10.60;99.90;;;;;;5006563;28;20200;-75
2022/03/21 08:03:03;;;;;;;29.90;25.60;;;10.80;99.90;;;;;;5008632;28;20227;-74
2022/03/21 08:05:32;;;;;;;27.10;20.60;;;10.90;99.80;;;;;;5006785;28;20204;-75
2022/03/21 08:07:59;;;;;;;23.93;19.00;;;10.90;97.80;;;;;;5015712;28;20199;-74
2022/03/21 08:10:27;;;;;;;21.27;17.73;;;11.10;95.90;;;;;;5013519;28;20207;-75
2022/03/21 08:12:55;;;;;;;23.17;19.00;;;11.20;93.70;;;;;;5012752;28;20219;-74
2022/03/21 08:15:23;;;;;;;19.60;17.40;;;11.20;92.50;;;;;;5036532;28;20215;-75
2022/03/21 08:17:52;;;;;;;20.13;17.27;;;11.10;90.70;;;;;;5009845;28;20583;-75
2022/03/21 08:20:20;;;;;;;20.80;18.03;;;10.90;90.20;;;;;;5025549;28;20201;-75
2022/03/21 08:22:49;;;;;;;21.83;17.30;;;11.10;90.50;;;;;;5003442;28;20562;-74
2022/03/21 08:25:18;;;;;;;20.63;18.07;;;11.10;90.10;;;;;;5026646;28;20200;-75
2022/03/21 08:27:45;;;;;;;21.00;17.50;;;11.20;89.00;;;;;;5011624;28;20207;-74
2022/03/21 08:30:15;;;;;;;21.20;18.57;;;11.20;90.20;;;;;;5017338;28;20546;-75
2022/03/21 08:32:43;;;;;;;20.80;17.47;;;11.40;91.10;;;;;;5013632;28;20203;-74
2022/03/21 08:35:11;;;;;;;21.13;16.40;;;11.40;91.50;;;;;;5006238;28;20211;-74
2022/03/21 08:37:39;;;;;;;21.63;18.37;;;11.30;90.30;;;;;;5011307;28;20230;-74
2022/03/21 08:40:09;;;;;;;21.97;18.17;;;11.40;88.40;;;;;;5010304;28;20204;-74
2022/03/21 08:42:39;;;;;;;22.97;17.80;;;11.60;90.00;;;;;;5004715;28;20572;-74
2022/03/21 08:45:08;;;;;;;19.08;16.85;;;11.50;88.10;;;;;;5012783;28;20200;-74
2022/03/21 08:47:35;;;;;;;23.17;18.45;;;11.50;89.50;;;;;;5005513;28;20472;-74
2022/03/21 08:50:04;;;;;;;20.42;17.20;;;11.60;90.50;;;;;;5029691;28;20207;-74
2022/03/21 08:52:32;;;;;;;20.77;18.30;;;11.70;89.50;;;;;;5007839;28;20736;-74
2022/03/21 08:55:00;;;;;;;21.55;18.10;;;11.80;90.40;;;;;;5010729;28;20231;-74
2022/03/21 08:57:28;;;;;;;21.50;16.60;;;12.00;88.70;;;;;;5011314;28;20230;-74
2022/03/21 08:59:56;;;;;;;21.03;16.73;;;11.90;85.80;;;;;;5013546;28;20192;-75
2022/03/21 09:02:23;;;;;;;21.17;18.10;;;11.90;85.90;;;;;;5009287;28;20199;-75
2022/03/21 09:04:51;;;;;;;21.73;16.77;;;11.90;85.50;;;;;;5025526;28;20224;-74
2022/03/21 09:07:19;;;;;;;21.63;17.23;;;12.00;84.00;;;;;;5011572;28;20187;-74
2022/03/21 09:09:46;;;;;;;20.27;15.90;;;12.00;83.30;;;;;;5013164;28;20203;-75
2022/03/21 09:12:13;;;;;;;21.95;17.35;;;12.10;82.60;;;;;;5018132;28;20199;-74
2022/03/21 09:14:44;;;;;;;20.98;16.17;;;12.20;82.60;;;;;;5012239;28;20258;-74
2022/03/21 09:17:13;;;;;;;20.67;16.75;;;12.30;83.00;;;;;;5007338;28;20220;-75
2022/03/21 09:19:55;;;;;;;22.40;16.58;;;12.40;82.80;;;;;;5011647;28;20199;-74
2022/03/21 09:22:24;;;;;;;21.55;16.33;;;12.60;82.80;;;;;;5006286;28;20200;-74
2022/03/21 09:25:01;;;;;;;19.55;16.25;;;12.70;81.50;;;;;;5006560;28;20231;-75
2022/03/21 09:27:28;;;;;;;21.98;16.25;;;12.80;79.00;;;;;;5009018;28;20257;-75
2022/03/21 09:29:57;;;;;;;17.48;13.30;;;12.70;77.90;;;;;;5005997;28;20212;-76
2022/03/21 09:32:25;;;;;;;21.70;16.67;;;12.90;86.50;;;;;;5022034;28;20208;-76
2022/03/21 09:34:52;;;;;;;21.23;17.08;;;13.60;85.20;;;;;;5022184;28;20219;-75
2022/03/21 09:37:19;;;;;;;20.25;16.23;;;13.70;78.70;;;;;;5006133;28;20214;-76
2022/03/21 09:39:47;;;;;;;20.83;16.67;;;13.70;80.80;;;;;;5005043;28;20200;-74
2022/03/21 09:42:16;;;;;;;21.33;17.42;;;13.80;77.60;;;;;;5006711;28;20204;-74
2022/03/21 09:44:46;;;;;;;20.17;17.00;;;13.80;76.60;;;;;;5005003;28;20220;-73
2022/03/21 09:50:10;;;;;;;22.40;17.02;;;13.60;77.00;;;;;;5010079;28;20210;-73
2022/03/21 09:52:38;;;;;;;22.42;17.58;;;13.60;76.70;;;;;;5009220;28;20199;-73
2022/03/21 09:55:07;;;;;;;19.45;16.90;;;13.70;77.50;;;;;;5010093;28;20218;-73
2022/03/21 09:57:40;;;;;;;24.40;17.60;;;13.80;78.50;;;;;;5011190;28;20674;-73
2022/03/21 10:00:08;;;;;;;23.55;18.38;;;14.00;77.10;;;;;;5012231;28;20214;-73
2022/03/21 10:02:43;;;;;;;19.63;17.48;;;14.10;76.00;;;;;;5008395;28;20207;-73
2022/03/21 10:05:35;;;;;;;21.00;18.08;;;14.40;74.90;;;;;;5011312;28;20696;-73
2022/03/21 10:08:14;;;;;;;21.23;17.88;;;14.40;76.60;;;;;;5007274;28;20200;-73
2022/03/21 10:10:51;;;;;;;22.20;17.70;;;14.50;74.70;;;;;;5005147;28;20206;-73
2022/03/21 10:13:19;;;;;;;21.10;16.90;;;14.60;78.60;;;;;;5013087;28;20227;-73
2022/03/21 10:15:47;;;;;;;21.13;17.67;;;14.70;74.70;;;;;;5009410;28;20215;-73
2022/03/21 10:18:18;;;;;;;21.70;18.70;;;14.60;74.20;;;;;;5005936;28;20214;-73
2022/03/21 10:20:46;;;;;;;23.40;17.35;;;14.70;76.40;;;;;;5011443;28;20211;-73
2022/03/21 10:23:19;;;;;;;22.65;18.73;;;14.60;74.40;;;;;;5009933;28;20616;-73
2022/03/21 10:25:47;;;;;;;22.98;16.83;;;14.70;74.80;;;;;;5025561;28;20569;-73
2022/03/21 10:28:33;;;;;;;21.02;17.88;;;15.00;76.00;;;;;;5008681;28;20214;-73
2022/03/21 10:31:01;;;;;;;21.02;17.45;;;15.20;77.70;;;;;;5027601;28;20200;-73
2022/03/21 10:33:30;;;;;;;22.65;18.27;;;15.20;74.50;;;;;;5007345;28;20673;-73
2022/03/21 10:36:06;;;;;;;19.45;16.73;;;15.20;75.50;;;;;;5008227;28;20208;-73
2022/03/21 10:38:46;;;;;;;21.90;17.58;;;15.40;72.80;;;;;;5011529;28;20204;-73
2022/03/21 10:41:14;;;;;;;21.80;17.92;;;15.50;73.70;;;;;;5007649;28;20208;-73
2022/03/21 10:43:54;;;;;;;19.35;17.05;;;15.60;73.20;;;;;;5006579;28;20216;-73
2022/03/21 10:46:22;;;;;;;22.40;17.52;;;15.80;74.00;;;;;;5008048;28;20210;-72
2022/03/21 10:49:04;;;;;;;24.75;18.40;;;15.70;72.20;;;;;;5005178;28;20223;-73
2022/03/21 10:51:47;;;;;;;20.92;18.15;;;15.90;72.10;;;;;;5018878;28;20223;-73
2022/03/21 10:54:37;;;;;;;21.80;17.45;;;16.00;74.00;;;;;;5004292;28;20223;-75
2022/03/21 10:57:05;;;;;;;23.48;18.60;;;16.00;72.60;;;;;;5009101;28;20215;-74
2022/03/21 10:59:48;;;;;;;;;;;;;;;;;;;;;
2022/03/21 11:02:39;;;;;;;21.20;18.42;;;16.40;74.40;;;;;;5023430;28;20206;-73
2022/03/21 11:05:09;;;;;;;19.90;16.95;;;16.70;73.10;;;;;;4933336;29;20205;-73
2022/03/21 11:07:36;;;;;;;19.90;17.50;;;16.80;71.50;;;;;;4976027;28;20523;-74
2022/03/21 11:10:12;;;;;;;20.33;17.55;;;16.80;70.20;;;;;;5006786;28;20930;-74
2022/03/21 11:12:42;;;;;;;20.98;17.50;;;16.70;69.80;;;;;;5008646;28;20586;-73
2022/03/21 11:15:11;;;;;;;21.35;17.52;;;16.60;70.50;;;;;;5005016;28;20195;-74
2022/03/21 11:17:39;;;;;;;20.10;17.05;;;16.70;69.80;;;;;;5003859;28;20230;-74
2022/03/21 11:20:10;;;;;;;19.23;16.20;;;16.80;70.10;;;;;;5005331;28;20191;-74
2022/03/21 11:22:39;;;;;;;21.52;16.52;;;16.80;69.60;;;;;;5019263;28;20205;-73
2022/03/21 11:25:11;;;;;;;20.25;15.20;;;16.70;70.80;;;;;;5002786;28;20301;-74
2022/03/21 11:28:02;;;;;;;19.42;15.32;;;16.90;72.50;;;;;;5000977;28;20543;-74
2022/03/21 11:30:44;;;;;;;19.77;15.15;;;17.40;71.00;;;;;;5003535;28;20207;-74
2022/03/21 11:33:23;;;;;;;16.58;13.98;;;17.20;68.40;;;;;;4997532;28;21729;-74
2022/03/21 11:36:00;;;;;;;19.88;16.20;;;17.00;69.60;;;;;;5004844;28;20211;-75
2022/03/21 11:38:29;;;;;;;18.02;15.82;;;17.40;73.60;;;;;;5020321;28;20226;-74
2022/03/21 11:41:11;;;;;;;19.05;14.20;;;17.70;69.70;;;;;;5001544;28;20748;-74
2022/03/21 11:43:39;;;;;;;18.70;14.95;;;17.40;69.40;;;;;;5002360;28;20216;-74
2022/03/21 11:46:29;;;;;;;19.40;15.32;;;17.70;67.90;;;;;;5001177;28;20218;-74
2022/03/21 11:49:02;;;;;;;17.63;13.93;;;17.70;67.70;;;;;;5009546;28;20196;-74
2022/03/21 11:51:37;;;;;;;14.98;12.82;;;17.80;66.90;;;;;;5005936;28;20657;-73
2022/03/21 11:54:07;;;;;;;16.60;13.32;;;17.80;67.30;;;;;;5006905;28;20226;-74
2022/03/21 11:56:55;;;;;;;15.93;12.93;;;18.60;67.70;;;;;;5021302;28;20200;-74
2022/03/21 11:59:48;;;;;;;17.58;14.35;;;18.80;66.00;;;;;;5002966;28;20227;-74
2022/03/21 12:02:56;;;;;;;17.38;13.80;;;18.50;64.10;;;;;;5007798;28;20196;-74
2022/03/21 12:05:50;;;;;;;18.80;14.50;;;18.20;66.10;;;;;;5001988;28;20210;-74
2022/03/21 12:08:53;;;;;;;17.15;13.50;;;18.50;64.50;;;;;;5002133;28;20688;-74
2022/03/21 12:12:03;;;;;;;18.40;15.00;;;18.50;63.70;;;;;;5006847;28;20210;-74
2022/03/21 12:14:43;;;;;;;19.88;14.90;;;19.10;64.10;;;;;;5003910;28;20267;-74
2022/03/21 12:17:33;;;;;;;20.35;14.57;;;18.80;62.00;;;;;;5006467;28;20199;-74
2022/03/21 12:20:02;;;;;;;19.17;13.73;;;18.60;63.20;;;;;;5003177;28;20281;-74
2022/03/21 12:22:40;;;;;;;12.88;11.20;;;19.50;64.80;;;;;;5007519;28;20665;-74
2022/03/21 12:25:13;;;;;;;14.82;12.85;;;19.40;61.90;;;;;;5007460;28;20222;-74
2022/03/21 12:27:42;;;;;;;13.73;12.05;;;19.50;60.90;;;;;;5015428;28;20557;-74
2022/03/21 12:30:48;;;;;;;13.48;11.70;;;20.60;60.20;;;;;;5009959;28;20188;-74
2022/03/21 12:33:28;;;;;;;15.10;11.73;;;19.90;61.30;;;;;;5026167;28;20219;-75
2022/03/21 12:36:31;;;;;;;15.10;11.82;;;20.30;60.00;;;;;;5000646;28;20658;-74
2022/03/21 12:38:58;;;;;;;11.90;10.70;;;19.60;59.10;;;;;;5007164;28;20228;-74
2022/03/21 12:41:33;;;;;;;12.52;11.00;;;19.10;61.00;;;;;;5026132;28;20199;-74
2022/03/21 12:44:01;;;;;;;12.63;11.43;;;19.90;62.00;;;;;;5008170;28;20226;-74
2022/03/21 12:46:28;;;;;;;12.10;10.45;;;19.60;59.60;;;;;;5009059;28;20212;-74
2022/03/21 12:48:59;;;;;;;14.13;10.73;;;19.50;61.70;;;;;;5008505;28;20204;-74
2022/03/21 12:51:37;;;;;;;11.82;10.57;;;19.60;60.20;;;;;;5007847;28;20211;-74
2022/03/21 12:54:05;;;;;;;12.40;10.05;;;19.10;60.30;;;;;;5010929;28;20218;-74
2022/03/21 12:56:34;;;;;;;14.82;10.40;;;18.90;61.80;;;;;;5012656;28;20203;-74
2022/03/21 12:59:04;;;;;;;13.48;10.43;;;18.90;61.30;;;;;;5010865;28;20578;-74
2022/03/21 13:01:33;;;;;;;12.60;10.07;;;19.80;61.00;;;;;;5012790;28;20531;-74
2022/03/21 13:12:28;;;;;;;9.70;8.70;;;20.60;57.80;;;;;;5028697;28;20400;-75
2022/03/21 13:15:04;;;;;;;10.18;8.45;;;21.30;58.80;;;;;;5009997;28;20238;-75
2022/03/21 13:17:54;;;;;;;9.70;8.80;;;21.10;58.50;;;;;;5021004;28;20199;-75
2022/03/21 13:20:26;;;;;;;10.52;8.90;;;20.40;57.50;;;;;;5008974;28;20223;-74
2022/03/21 13:23:25;;;;;;;10.40;8.45;;;21.00;58.50;;;;;;5010537;28;20684;-74
2022/03/21 13:26:21;;;;;;;10.32;9.20;;;21.90;55.90;;;;;;5011123;28;20200;-74